createdAt,value
2022-08-28T00:02:01.610Z,13.48
2022-08-28T00:04:31.535Z,13.43
2022-08-28T00:07:01.346Z,13.13
2022-08-28T00:09:31.128Z,13.57
2022-08-28T00:12:00.390Z,12.70
2022-08-28T00:14:31.291Z,13.27
2022-08-28T00:17:00.684Z,13.18
2022-08-28T00:19:29.993Z,13.15
2022-08-28T00:21:59.553Z,13.13
2022-08-28T00:24:29.161Z,13.35
2022-08-28T00:27:15.977Z,13.38
2022-08-28T00:29:50.052Z,12.68
2022-08-28T00:32:23.447Z,13.02
2022-08-28T00:34:53.234Z,13.63
2022-08-28T00:37:24.656Z,13.18
2022-08-28T00:39:54.501Z,13.75
2022-08-28T00:42:23.893Z,12.63
2022-08-28T00:44:54.571Z,13.05
2022-08-28T00:47:26.321Z,13.75
2022-08-28T00:49:57.572Z,14.18
2022-08-28T00:52:27.683Z,13.13
2022-08-28T00:55:01.242Z,12.75
2022-08-28T00:57:36.155Z,12.88
2022-08-28T01:00:10.006Z,13.00
2022-08-28T01:02:39.610Z,12.95
2022-08-28T01:05:10.053Z,12.93
2022-08-28T01:07:40.257Z,13.30
2022-08-28T01:10:12.327Z,13.70
2022-08-28T01:12:42.224Z,13.02
2022-08-28T01:15:17.497Z,13.13
2022-08-28T01:17:51.423Z,13.05
2022-08-28T01:20:24.257Z,13.18
2022-08-28T01:23:04.702Z,13.38
2022-08-28T01:25:37.746Z,13.85
2022-08-28T01:28:10.599Z,14.52
2022-08-28T01:30:42.208Z,14.05
2022-08-28T01:33:11.985Z,14.15
2022-08-28T01:35:45.390Z,14.60
2022-08-28T01:38:19.588Z,14.18
2022-08-28T01:40:57.271Z,14.85
2022-08-28T01:43:29.008Z,14.80
2022-08-28T01:46:02.258Z,14.68
2022-08-28T01:48:35.084Z,15.05
2022-08-28T01:51:04.765Z,15.50
2022-08-28T01:53:35.122Z,14.93
2022-08-28T01:56:09.580Z,14.82
2022-08-28T01:58:39.549Z,15.20
2022-08-28T02:01:11.842Z,16.08
2022-08-28T02:03:43.253Z,16.30
2022-08-28T02:06:13.868Z,16.65
2022-08-28T02:08:43.795Z,17.10
2022-08-28T02:11:15.912Z,17.52
2022-08-28T02:13:45.536Z,16.60
2022-08-28T02:16:20.554Z,16.77
2022-08-28T02:21:19.464Z,16.50
2022-08-28T02:23:48.903Z,16.85
2022-08-28T02:26:20.928Z,16.30
2022-08-28T02:28:50.220Z,17.02
2022-08-28T02:31:20.333Z,16.45
2022-08-28T02:36:19.299Z,15.98
2022-08-28T02:38:54.036Z,16.50
2022-08-28T02:41:27.881Z,17.88
2022-08-28T02:43:57.345Z,17.45
2022-08-28T02:46:26.700Z,16.67
2022-08-28T02:48:56.321Z,16.77
2022-08-28T02:51:26.325Z,16.33
2022-08-28T02:53:55.609Z,16.75
2022-08-28T02:56:26.462Z,16.25
2022-08-28T02:58:56.642Z,16.75
2022-08-28T03:03:55.256Z,16.40
2022-08-28T03:06:24.770Z,16.08
2022-08-28T03:08:54.004Z,16.58
2022-08-28T03:11:23.426Z,17.05
2022-08-28T03:13:55.544Z,16.92
2022-08-28T03:16:25.945Z,16.17
2022-08-28T03:18:55.472Z,16.75
2022-08-28T03:21:24.834Z,17.30
2022-08-28T03:23:54.090Z,18.38
2022-08-28T03:26:24.409Z,18.80
2022-08-28T03:31:29.227Z,16.27
2022-08-28T03:33:58.492Z,16.40
2022-08-28T03:36:30.158Z,17.63
2022-08-28T03:39:03.741Z,16.40
2022-08-28T03:41:34.093Z,17.17
2022-08-28T03:44:05.466Z,15.82
2022-08-28T03:46:35.788Z,16.73
2022-08-28T03:49:06.779Z,16.30
2022-08-28T03:51:36.672Z,16.23
2022-08-28T03:54:06.713Z,15.85
2022-08-28T03:59:06.983Z,15.83
2022-08-28T04:01:38.201Z,14.68
2022-08-28T04:04:07.842Z,15.98
2022-08-28T04:06:37.093Z,15.20
2022-08-28T04:11:40.742Z,14.93
2022-08-28T04:14:11.511Z,15.13
2022-08-28T04:16:41.499Z,15.93
2022-08-28T04:19:10.818Z,14.05
2022-08-28T04:21:40.396Z,15.15
2022-08-28T04:24:10.051Z,14.15
2022-08-28T04:26:39.416Z,14.20
2022-08-28T04:29:10.903Z,15.48
2022-08-28T04:31:40.488Z,15.30
2022-08-28T04:34:10.973Z,15.15
2022-08-28T04:36:40.380Z,14.88
2022-08-28T04:39:11.165Z,14.15
2022-08-28T04:41:40.485Z,14.20
2022-08-28T04:44:11.166Z,14.02
2022-08-28T04:46:40.762Z,14.32
2022-08-28T04:49:10.743Z,15.38
2022-08-28T04:54:12.052Z,13.73
2022-08-28T04:56:42.472Z,13.73
2022-08-28T04:59:13.773Z,13.52
2022-08-28T05:01:44.219Z,12.95
2022-08-28T05:04:14.226Z,13.43
2022-08-28T05:09:18.016Z,12.98
2022-08-28T05:11:48.573Z,13.63
2022-08-28T05:14:21.756Z,12.82
2022-08-28T05:16:52.915Z,12.65
2022-08-28T05:19:24.160Z,12.27
2022-08-28T05:21:54.403Z,12.27
2022-08-28T05:24:24.026Z,12.13
2022-08-28T05:26:53.408Z,13.35
2022-08-28T05:29:24.082Z,13.38
2022-08-28T05:31:54.867Z,13.23
2022-08-28T05:34:24.711Z,12.82
2022-08-28T05:36:53.966Z,12.95
2022-08-28T05:39:23.475Z,12.95
2022-08-28T05:41:52.727Z,12.52
2022-08-28T05:44:23.394Z,12.32
2022-08-28T05:46:53.019Z,11.80
2022-08-28T05:49:22.785Z,11.73
2022-08-28T05:51:52.456Z,11.02
2022-08-28T05:56:51.239Z,11.25
2022-08-28T05:59:20.500Z,11.02
2022-08-28T06:01:51.844Z,11.63
2022-08-28T06:04:26.447Z,11.25
2022-08-28T06:06:57.335Z,10.90
2022-08-28T06:09:29.976Z,10.57
2022-08-28T06:12:02.973Z,11.52
2022-08-28T06:14:33.686Z,10.93
2022-08-28T06:17:06.082Z,10.82
2022-08-28T06:19:40.734Z,10.75
2022-08-28T06:22:12.356Z,11.65
2022-08-28T06:24:41.670Z,11.52
2022-08-28T06:27:10.907Z,11.05
2022-08-28T06:29:41.447Z,11.85
2022-08-28T06:32:12.132Z,11.40
2022-08-28T06:34:41.744Z,10.93
2022-08-28T06:37:11.015Z,12.35
2022-08-28T06:39:40.254Z,11.95
2022-08-28T06:42:09.792Z,11.75
2022-08-28T06:44:40.774Z,11.80
2022-08-28T06:47:11.941Z,11.85
2022-08-28T06:49:41.509Z,11.90
2022-08-28T06:52:10.774Z,11.98
2022-08-28T06:54:40.268Z,12.13
2022-08-28T06:57:14.874Z,11.80
2022-08-28T06:59:44.367Z,12.07
2022-08-28T07:02:15.159Z,12.05
2022-08-28T07:04:44.517Z,11.35
2022-08-28T07:07:31.220Z,10.93
2022-08-28T07:10:01.371Z,11.00
2022-08-28T07:12:30.902Z,11.25
2022-08-28T07:15:00.426Z,11.30
2022-08-28T07:17:32.653Z,11.18
2022-08-28T07:20:02.544Z,10.82
2022-08-28T07:22:31.879Z,10.30
2022-08-28T07:25:01.245Z,11.23
2022-08-28T07:27:31.447Z,11.55
2022-08-28T07:30:02.034Z,10.25
2022-08-28T07:32:33.619Z,10.65
2022-08-28T07:35:03.005Z,10.60
2022-08-28T07:37:32.566Z,10.43
2022-08-28T07:40:03.915Z,10.55
2022-08-28T07:42:52.336Z,10.43
2022-08-28T07:45:21.738Z,10.57
2022-08-28T07:47:52.818Z,10.27
2022-08-28T07:50:22.691Z,10.80
2022-08-28T07:52:52.209Z,11.45
2022-08-28T07:55:21.505Z,10.80
2022-08-28T07:57:50.944Z,11.07
2022-08-28T08:00:22.915Z,10.52
2022-08-28T08:02:53.679Z,10.80
2022-08-28T08:05:22.992Z,10.50
2022-08-28T08:07:52.477Z,10.60
2022-08-28T08:10:22.832Z,10.35
2022-08-28T08:12:52.456Z,10.48
2022-08-28T08:15:23.097Z,10.52
2022-08-28T08:17:53.775Z,10.15
2022-08-28T08:20:23.432Z,9.90
2022-08-28T08:22:52.809Z,9.77
2022-08-28T08:25:22.161Z,10.48
2022-08-28T08:27:52.646Z,9.88
2022-08-28T08:30:22.007Z,10.00
2022-08-28T08:32:55.054Z,9.60
2022-08-28T08:35:27.576Z,9.57
2022-08-28T08:37:59.654Z,9.30
2022-08-28T08:40:32.865Z,9.55
2022-08-28T08:43:04.117Z,10.55
2022-08-28T08:45:34.528Z,8.93
2022-08-28T08:48:05.641Z,9.80
2022-08-28T08:50:37.302Z,9.63
2022-08-28T08:53:24.610Z,9.98
2022-08-28T08:55:57.056Z,9.95
2022-08-28T08:58:31.096Z,10.25
2022-08-28T09:01:09.543Z,9.88
2022-08-28T09:03:56.033Z,9.48
2022-08-28T09:06:33.988Z,10.15
2022-08-28T09:09:19.138Z,10.35
2022-08-28T09:11:56.516Z,9.55
2022-08-28T09:14:37.617Z,10.15
2022-08-28T09:17:08.344Z,9.90
2022-08-28T09:19:39.112Z,9.63
2022-08-28T09:22:08.833Z,9.93
2022-08-28T09:24:40.867Z,10.07
2022-08-28T09:27:22.774Z,9.25
2022-08-28T09:29:58.892Z,9.95
2022-08-28T09:32:35.650Z,9.60
2022-08-28T09:35:25.896Z,9.00
2022-08-28T09:37:55.802Z,9.55
2022-08-28T09:40:47.441Z,9.63
2022-08-28T09:43:27.959Z,9.55
2022-08-28T09:46:01.379Z,9.82
2022-08-28T09:48:37.046Z,9.98
2022-08-28T09:51:10.867Z,9.50
2022-08-28T09:53:54.840Z,9.63
2022-08-28T09:56:29.784Z,9.18
2022-08-28T09:59:02.452Z,9.90
2022-08-28T10:01:52.708Z,9.55
2022-08-28T10:04:49.966Z,10.00
2022-08-28T10:07:31.045Z,9.07
2022-08-28T10:10:17.632Z,9.55
2022-08-28T10:12:59.523Z,8.93
2022-08-28T10:15:42.950Z,9.43
2022-08-28T10:18:29.456Z,8.50
2022-08-28T10:21:08.511Z,9.23
2022-08-28T10:23:48.029Z,8.75
2022-08-28T10:29:07.906Z,8.60
2022-08-28T10:31:44.105Z,8.98
2022-08-28T10:34:29.003Z,9.40
2022-08-28T10:37:08.429Z,9.38
2022-08-28T10:39:51.869Z,8.40
2022-08-28T10:42:33.756Z,8.07
2022-08-28T10:45:11.673Z,7.95
2022-08-28T10:47:45.885Z,8.15
2022-08-28T10:50:20.300Z,7.82
2022-08-28T10:52:54.820Z,8.27
2022-08-28T10:55:32.403Z,7.95
2022-08-28T10:58:05.485Z,8.90
2022-08-28T11:00:56.348Z,9.82
2022-08-28T11:03:35.797Z,9.32
2022-08-28T11:06:11.486Z,8.23
2022-08-28T11:08:41.638Z,9.70
2022-08-28T11:13:59.694Z,9.02
2022-08-28T11:16:40.566Z,8.77
2022-08-28T11:19:33.558Z,8.73
2022-08-28T11:22:11.592Z,8.52
2022-08-28T11:24:59.330Z,9.32
2022-08-28T11:27:36.069Z,8.20
2022-08-28T11:30:35.596Z,8.90
2022-08-28T11:35:46.695Z,8.80
2022-08-28T11:41:14.545Z,10.32
2022-08-28T11:43:47.252Z,11.65
2022-08-28T11:46:29.420Z,11.38
2022-08-28T11:49:00.498Z,10.43
2022-08-28T11:52:04.702Z,11.55
2022-08-28T11:54:46.933Z,11.00
2022-08-28T11:57:19.155Z,10.90
2022-08-28T12:00:10.394Z,12.20
2022-08-28T12:03:09.339Z,12.40
2022-08-28T12:05:46.409Z,12.50
2022-08-28T12:09:09.298Z,12.65
2022-08-28T12:12:11.552Z,11.88
2022-08-28T12:15:10.566Z,11.65
2022-08-28T12:17:58.813Z,11.75
2022-08-28T12:20:59.736Z,11.93
2022-08-28T12:23:40.048Z,10.85
2022-08-28T12:26:19.004Z,10.88
2022-08-28T12:28:50.402Z,10.63
2022-08-28T12:32:14.884Z,11.43
2022-08-28T12:34:49.830Z,11.27
2022-08-28T12:37:30.631Z,11.05
2022-08-28T12:42:55.263Z,13.00
2022-08-28T12:45:28.977Z,12.40
2022-08-28T12:48:04.047Z,11.77
2022-08-28T12:50:36.366Z,11.23
2022-08-28T12:53:08.442Z,11.52
2022-08-28T12:55:40.245Z,12.82
2022-08-28T12:58:15.218Z,12.15
2022-08-28T13:00:54.495Z,12.65
2022-08-28T13:03:26.013Z,13.27
2022-08-28T13:06:03.357Z,13.40
2022-08-28T13:08:34.317Z,12.88
2022-08-28T13:11:04.354Z,13.82
2022-08-28T13:13:39.314Z,14.13
2022-08-28T13:16:10.714Z,13.98
2022-08-28T13:18:45.397Z,12.75
2022-08-28T13:21:33.580Z,14.55
2022-08-28T13:24:27.450Z,14.50
2022-08-28T13:27:06.835Z,15.23
2022-08-28T13:29:37.925Z,15.18
2022-08-28T13:32:09.106Z,14.70
2022-08-28T13:34:47.726Z,14.25
2022-08-28T13:37:43.069Z,14.10
2022-08-28T13:40:36.892Z,15.25
2022-08-28T13:43:07.654Z,13.90
2022-08-28T13:45:44.358Z,13.98
2022-08-28T13:48:15.676Z,14.00
2022-08-28T13:50:51.402Z,15.07
2022-08-28T13:53:21.666Z,15.98
2022-08-28T13:55:52.405Z,11.48
2022-08-28T13:58:24.782Z,10.18
2022-08-28T14:00:55.884Z,8.48
2022-08-28T14:03:36.756Z,7.28
2022-08-28T14:06:11.845Z,7.88
2022-08-28T14:08:43.432Z,7.03
2022-08-28T14:11:20.121Z,7.05
2022-08-28T14:13:55.213Z,6.47
2022-08-28T14:16:27.738Z,6.85
2022-08-28T14:18:57.115Z,6.10
2022-08-28T14:24:18.463Z,6.38
2022-08-28T14:26:48.392Z,5.95
2022-08-28T14:36:50.941Z,5.60
2022-08-28T14:39:20.641Z,5.50
2022-08-28T14:41:52.316Z,5.47
2022-08-28T14:44:23.479Z,4.97
2022-08-28T14:46:56.134Z,5.80
2022-08-28T14:49:28.856Z,5.57
2022-08-28T14:51:59.717Z,5.80
2022-08-28T14:54:29.290Z,5.65
2022-08-28T14:56:58.947Z,5.20
2022-08-28T15:02:01.525Z,5.22
2022-08-28T15:04:34.790Z,5.35
2022-08-28T15:07:10.649Z,4.88
2022-08-28T15:09:41.561Z,5.25
2022-08-28T15:12:11.445Z,5.20
2022-08-28T15:14:40.738Z,4.63
2022-08-28T15:17:23.275Z,4.80
2022-08-28T15:20:03.648Z,4.90
2022-08-28T15:22:34.629Z,4.72
2022-08-28T15:25:05.862Z,4.63
2022-08-28T15:27:35.751Z,4.00
2022-08-28T15:30:05.867Z,4.40
2022-08-28T15:32:35.494Z,4.28
2022-08-28T15:35:05.913Z,4.50
2022-08-28T15:37:39.980Z,4.15
2022-08-28T15:40:26.785Z,3.97
2022-08-28T15:42:56.395Z,3.70
2022-08-28T15:45:26.714Z,3.65
2022-08-28T15:47:56.874Z,3.85
2022-08-28T15:50:26.522Z,5.00
2022-08-28T15:52:57.632Z,3.65
2022-08-28T15:55:28.816Z,3.47
2022-08-28T15:57:58.895Z,4.65
2022-08-28T16:03:00.879Z,3.08
2022-08-28T16:05:40.712Z,3.17
2022-08-28T16:08:12.159Z,2.80
2022-08-28T16:10:41.723Z,3.30
2022-08-28T16:13:11.080Z,2.97
2022-08-28T16:18:10.017Z,3.20
2022-08-28T16:20:39.682Z,3.05
2022-08-28T16:23:11.881Z,5.05
2022-08-28T16:25:42.288Z,3.63
2022-08-28T16:28:11.567Z,2.97
2022-08-28T16:30:43.724Z,3.15
2022-08-28T16:33:16.290Z,3.40
2022-08-28T16:35:49.482Z,3.47
2022-08-28T16:38:26.254Z,3.50
2022-08-28T16:40:55.597Z,3.58
2022-08-28T16:43:25.171Z,3.10
2022-08-28T16:45:54.485Z,3.30
2022-08-28T16:48:23.897Z,3.92
2022-08-28T16:50:54.537Z,4.40
2022-08-28T16:53:27.116Z,5.88
2022-08-28T16:55:56.915Z,4.18
2022-08-28T16:58:26.641Z,3.90
2022-08-28T17:00:56.390Z,4.20
2022-08-28T17:03:26.871Z,4.30
2022-08-28T17:05:58.094Z,4.30
2022-08-28T17:08:29.079Z,4.32
2022-08-28T17:10:59.190Z,4.10
2022-08-28T17:13:28.794Z,3.67
2022-08-28T17:16:00.241Z,4.20
2022-08-28T17:18:29.970Z,4.00
2022-08-28T17:21:16.643Z,4.30
2022-08-28T17:23:48.176Z,4.20
2022-08-28T17:26:18.130Z,4.60
2022-08-28T17:28:48.290Z,4.65
2022-08-28T17:31:17.799Z,4.28
2022-08-28T17:36:32.424Z,4.10
2022-08-28T17:39:08.602Z,4.68
2022-08-28T17:41:37.934Z,4.05
2022-08-28T17:44:09.147Z,4.38
2022-08-28T17:46:39.197Z,4.20
2022-08-28T17:49:10.021Z,4.65
2022-08-28T17:51:43.528Z,4.65
2022-08-28T17:54:18.429Z,5.18
2022-08-28T17:56:48.339Z,4.93
2022-08-28T17:59:18.482Z,4.70
2022-08-28T18:01:48.649Z,7.40
2022-08-28T18:04:24.382Z,5.70
2022-08-28T18:06:55.068Z,6.30
2022-08-28T18:09:26.418Z,6.03
2022-08-28T18:11:55.757Z,5.53
2022-08-28T18:14:25.344Z,5.13
2022-08-28T18:16:55.052Z,5.38
2022-08-28T18:19:25.145Z,5.35
2022-08-28T18:21:55.277Z,4.82
2022-08-28T18:24:26.442Z,5.10
2022-08-28T18:26:58.347Z,4.90
2022-08-28T18:29:29.329Z,4.65
2022-08-28T18:32:01.794Z,4.90
2022-08-28T18:34:32.046Z,4.65
2022-08-28T18:37:03.047Z,5.03
2022-08-28T18:39:35.880Z,5.00
2022-08-28T18:42:06.469Z,4.70
2022-08-28T18:44:36.216Z,4.93
2022-08-28T18:47:05.740Z,4.90
2022-08-28T18:49:35.564Z,4.80
2022-08-28T18:52:05.265Z,4.80
2022-08-28T18:54:35.974Z,4.97
2022-08-28T18:57:07.241Z,4.70
2022-08-28T18:59:36.551Z,4.70
2022-08-28T19:02:07.127Z,4.57
2022-08-28T19:04:37.065Z,4.60
2022-08-28T19:07:06.551Z,4.90
2022-08-28T19:09:37.620Z,4.57
2022-08-28T19:12:07.519Z,4.78
2022-08-28T19:14:37.607Z,4.60
2022-08-28T19:17:07.330Z,4.47
2022-08-28T19:19:36.958Z,4.88
2022-08-28T19:24:37.408Z,4.40
2022-08-28T19:27:07.068Z,4.32
2022-08-28T19:32:07.082Z,4.20
2022-08-28T19:34:36.808Z,4.80
2022-08-28T19:39:37.425Z,4.38
2022-08-28T19:42:08.166Z,4.57
2022-08-28T19:44:40.059Z,4.03
2022-08-28T19:47:09.806Z,4.53
2022-08-28T19:49:40.915Z,4.55
2022-08-28T19:52:11.009Z,4.60
2022-08-28T19:54:43.495Z,4.57
2022-08-28T19:57:12.917Z,4.15
2022-08-28T19:59:42.752Z,4.68
2022-08-28T20:02:14.308Z,4.82
2022-08-28T20:04:44.126Z,4.95
2022-08-28T20:07:13.444Z,4.75
2022-08-28T20:09:44.220Z,5.28
2022-08-28T20:12:14.679Z,5.00
2022-08-28T20:14:44.692Z,4.68
2022-08-28T20:17:14.133Z,5.65
2022-08-28T20:19:45.459Z,4.80
2022-08-28T20:22:15.232Z,5.50
2022-08-28T20:24:46.342Z,5.32
2022-08-28T20:27:15.663Z,6.57
2022-08-28T20:29:46.189Z,5.85
2022-08-28T20:32:15.999Z,5.82
2022-08-28T20:34:45.292Z,5.10
2022-08-28T20:37:16.634Z,6.25
2022-08-28T20:39:48.146Z,5.70
2022-08-28T20:42:17.496Z,5.80
2022-08-28T20:44:47.019Z,5.20
2022-08-28T20:47:16.341Z,5.45
2022-08-28T20:49:45.599Z,5.63
2022-08-28T20:52:15.654Z,5.10
2022-08-28T20:54:46.681Z,5.20
2022-08-28T20:57:21.103Z,5.43
2022-08-28T20:59:50.807Z,5.40
2022-08-28T21:04:53.867Z,6.00
2022-08-28T21:07:25.043Z,5.80
2022-08-28T21:10:05.284Z,5.60
2022-08-28T21:12:38.148Z,5.88
2022-08-28T21:15:09.084Z,5.72
2022-08-28T21:17:38.934Z,5.35
2022-08-28T21:20:11.942Z,5.53
2022-08-28T21:22:42.734Z,5.65
2022-08-28T21:25:15.475Z,5.53
2022-08-28T21:27:46.950Z,5.30
2022-08-28T21:30:19.609Z,5.75
2022-08-28T21:32:50.092Z,5.72
2022-08-28T21:35:21.318Z,5.75
2022-08-28T21:37:51.261Z,5.43
2022-08-28T21:40:22.446Z,5.15
2022-08-28T21:42:52.014Z,5.78
2022-08-28T21:45:22.253Z,5.30
2022-08-28T21:47:51.513Z,5.38
2022-08-28T21:50:21.515Z,5.30
2022-08-28T21:52:50.929Z,5.47
2022-08-28T21:55:22.326Z,5.57
2022-08-28T21:57:52.109Z,4.93
2022-08-28T22:00:24.304Z,5.57
2022-08-28T22:02:53.956Z,5.00
2022-08-28T22:05:23.766Z,5.07
2022-08-28T22:07:53.054Z,5.05
2022-08-28T22:10:25.704Z,5.25
2022-08-28T22:12:54.986Z,4.80
2022-08-28T22:15:24.719Z,4.72
2022-08-28T22:17:54.012Z,4.60
2022-08-28T22:20:23.325Z,4.93
2022-08-28T22:23:10.261Z,5.20
2022-08-28T22:25:42.592Z,5.43
2022-08-28T22:28:12.264Z,4.97
2022-08-28T22:30:41.587Z,5.20
2022-08-28T22:33:11.920Z,4.57
2022-08-28T22:35:41.639Z,4.60
2022-08-28T22:38:11.731Z,5.15
2022-08-28T22:40:42.787Z,4.25
2022-08-28T22:43:12.526Z,4.65
2022-08-28T22:48:12.329Z,4.55
2022-08-28T22:50:42.276Z,4.25
2022-08-28T22:53:11.878Z,4.40
2022-08-28T22:55:44.383Z,4.15
2022-08-28T22:58:14.347Z,4.07
2022-08-28T23:00:43.819Z,4.13
2022-08-28T23:03:13.213Z,4.00
2022-08-28T23:05:42.756Z,4.30
2022-08-28T23:08:12.104Z,4.38
2022-08-28T23:10:58.506Z,3.92
2022-08-28T23:13:29.173Z,4.43
2022-08-28T23:15:58.886Z,4.25
2022-08-28T23:18:28.547Z,3.90
2022-08-28T23:23:27.224Z,4.00
2022-08-28T23:25:57.929Z,3.97
2022-08-28T23:28:27.506Z,4.20
2022-08-28T23:30:56.873Z,4.20
2022-08-28T23:33:26.291Z,4.50
2022-08-28T23:35:55.895Z,4.25
2022-08-28T23:38:25.209Z,3.97
2022-08-28T23:40:56.953Z,4.22
2022-08-28T23:43:26.561Z,4.20
2022-08-28T23:45:56.388Z,3.50
2022-08-28T23:48:26.047Z,4.47
2022-08-28T23:50:55.806Z,3.95
2022-08-28T23:53:25.117Z,4.07
2022-08-28T23:55:54.377Z,4.35
2022-08-28T23:58:26.206Z,4.10
